Terminal Aerodrome Forecast
Issued by NWS Charleston, SC

Home | Current Version | Previous Version | Text Only | Print | Product List | Glossary On
Versions: 1 2 3 4 5 6 7 8 9 10 11 12 13 14 15 16 17 18 19 20 21
430
FTUS42 KCHS 270527
TAFSAV
TAF
KSAV 270527Z 2706/2806 VRB02KT P6SM SKC
     FM271500 26010KT P6SM FEW200
     FM272130 22012KT P6SM FEW200=

USA.gov is the U.S. government's official web portal to all federal, state and local government web resources and services.